sensor_id;sensor_type;location;lat;lon;timestamp;temperature;humidity
67279;DHT22;54193;53.746;10.058;2023-02-21T00:01:42;7.99;95.57
67279;DHT22;54193;53.746;10.058;2023-02-21T00:04:47;7.96;95.55
67279;DHT22;54193;53.746;10.058;2023-02-21T00:07:51;7.93;95.62
67279;DHT22;54193;53.746;10.058;2023-02-21T00:10:55;7.93;95.57
67279;DHT22;54193;53.746;10.058;2023-02-21T00:13:59;7.96;95.54
67279;DHT22;54193;53.746;10.058;2023-02-21T00:17:03;7.93;95.51
67279;DHT22;54193;53.746;10.058;2023-02-21T00:20:08;7.92;95.56
67279;DHT22;54193;53.746;10.058;2023-02-21T00:23:12;7.89;95.52
67279;DHT22;54193;53.746;10.058;2023-02-21T00:26:17;7.87;95.45
67279;DHT22;54193;53.746;10.058;2023-02-21T00:29:22;7.87;95.48
67279;DHT22;54193;53.746;10.058;2023-02-21T00:32:26;7.85;95.54
67279;DHT22;54193;53.746;10.058;2023-02-21T00:35:30;7.85;95.48
67279;DHT22;54193;53.746;10.058;2023-02-21T00:38:36;7.82;95.51
67279;DHT22;54193;53.746;10.058;2023-02-21T00:41:40;7.82;95.53
67279;DHT22;54193;53.746;10.058;2023-02-21T00:44:44;7.81;95.55
67279;DHT22;54193;53.746;10.058;2023-02-21T00:47:48;7.81;95.55
67279;DHT22;54193;53.746;10.058;2023-02-21T00:50:52;7.78;95.51
67279;DHT22;54193;53.746;10.058;2023-02-21T00:53:57;7.82;95.51
67279;DHT22;54193;53.746;10.058;2023-02-21T00:57:01;7.76;95.52
67279;DHT22;54193;53.746;10.058;2023-02-21T01:00:07;7.76;95.43
67279;DHT22;54193;53.746;10.058;2023-02-21T01:03:13;7.76;95.48
67279;DHT22;54193;53.746;10.058;2023-02-21T01:06:17;7.81;95.41
67279;DHT22;54193;53.746;10.058;2023-02-21T01:09:21;7.81;95.44
67279;DHT22;54193;53.746;10.058;2023-02-21T01:12:25;7.79;95.47
67279;DHT22;54193;53.746;10.058;2023-02-21T01:15:29;7.82;95.46
67279;DHT22;54193;53.746;10.058;2023-02-21T01:18:33;7.81;95.44
67279;DHT22;54193;53.746;10.058;2023-02-21T01:21:38;7.78;95.42
67279;DHT22;54193;53.746;10.058;2023-02-21T01:24:42;7.82;95.45
67279;DHT22;54193;53.746;10.058;2023-02-21T01:27:46;7.83;95.42
67279;DHT22;54193;53.746;10.058;2023-02-21T01:30:51;7.82;95.37
67279;DHT22;54193;53.746;10.058;2023-02-21T01:33:55;7.82;95.36
67279;DHT22;54193;53.746;10.058;2023-02-21T01:36:59;7.81;95.33
67279;DHT22;54193;53.746;10.058;2023-02-21T01:40:03;7.83;95.42
67279;DHT22;54193;53.746;10.058;2023-02-21T01:43:14;7.83;95.47
67279;DHT22;54193;53.746;10.058;2023-02-21T01:46:19;7.79;95.49
67279;DHT22;54193;53.746;10.058;2023-02-21T01:49:23;7.81;95.48
67279;DHT22;54193;53.746;10.058;2023-02-21T01:52:28;7.79;95.53
67279;DHT22;54193;53.746;10.058;2023-02-21T01:55:33;7.82;95.55
67279;DHT22;54193;53.746;10.058;2023-02-21T01:58:37;7.82;95.56
67279;DHT22;54193;53.746;10.058;2023-02-21T02:01:50;7.82;95.53
67279;DHT22;54193;53.746;10.058;2023-02-21T02:04:55;7.82;95.54
67279;DHT22;54193;53.746;10.058;2023-02-21T02:07:59;7.81;95.56
67279;DHT22;54193;53.746;10.058;2023-02-21T02:11:14;7.82;95.50
67279;DHT22;54193;53.746;10.058;2023-02-21T02:36:15;7.76;95.55
67279;DHT22;54193;53.746;10.058;2023-02-21T02:39:20;7.78;95.55
67279;DHT22;54193;53.746;10.058;2023-02-21T02:42:43;7.73;95.49
67279;DHT22;54193;53.746;10.058;2023-02-21T02:45:55;7.71;95.50
67279;DHT22;54193;53.746;10.058;2023-02-21T02:48:49;7.73;95.52
67279;DHT22;54193;53.746;10.058;2023-02-21T02:51:38;7.71;95.49
67279;DHT22;54193;53.746;10.058;2023-02-21T02:54:23;7.73;95.46
67279;DHT22;54193;53.746;10.058;2023-02-21T02:57:10;7.68;95.47
67279;DHT22;54193;53.746;10.058;2023-02-21T02:59:57;7.68;95.54
67279;DHT22;54193;53.746;10.058;2023-02-21T03:03:08;7.55;95.25
67279;DHT22;54193;53.746;10.058;2023-02-21T03:06:15;7.43;94.86
67279;DHT22;54193;53.746;10.058;2023-02-21T03:09:30;7.40;95.06
67279;DHT22;54193;53.746;10.058;2023-02-21T03:12:28;7.35;95.11
67279;DHT22;54193;53.746;10.058;2023-02-21T03:15:24;7.30;95.08
67279;DHT22;54193;53.746;10.058;2023-02-21T03:18:48;7.27;95.10
67279;DHT22;54193;53.746;10.058;2023-02-21T03:21:42;7.27;95.18
67279;DHT22;54193;53.746;10.058;2023-02-21T03:24:30;7.26;95.16
67279;DHT22;54193;53.746;10.058;2023-02-21T03:27:19;7.21;95.10
67279;DHT22;54193;53.746;10.058;2023-02-21T03:30:06;7.20;94.94
67279;DHT22;54193;53.746;10.058;2023-02-21T03:32:53;7.18;95.02
67279;DHT22;54193;53.746;10.058;2023-02-21T03:35:40;7.20;94.92
67279;DHT22;54193;53.746;10.058;2023-02-21T03:38:30;7.17;94.96
67279;DHT22;54193;53.746;10.058;2023-02-21T03:41:16;7.18;94.98
67279;DHT22;54193;53.746;10.058;2023-02-21T03:44:01;7.21;94.91
67279;DHT22;54193;53.746;10.058;2023-02-21T03:46:47;7.24;94.85
67279;DHT22;54193;53.746;10.058;2023-02-21T03:49:32;7.24;94.85
67279;DHT22;54193;53.746;10.058;2023-02-21T03:52:18;7.21;94.65
67279;DHT22;54193;53.746;10.058;2023-02-21T03:55:05;7.18;94.43
67279;DHT22;54193;53.746;10.058;2023-02-21T03:57:51;7.18;94.36
67279;DHT22;54193;53.746;10.058;2023-02-21T04:00:36;7.16;94.29
67279;DHT22;54193;53.746;10.058;2023-02-21T04:03:22;7.14;94.21
67279;DHT22;54193;53.746;10.058;2023-02-21T04:06:08;7.14;94.26
67279;DHT22;54193;53.746;10.058;2023-02-21T04:08:53;7.11;94.18
67279;DHT22;54193;53.746;10.058;2023-02-21T04:11:43;7.11;94.15
67279;DHT22;54193;53.746;10.058;2023-02-21T04:14:29;7.14;94.11
67279;DHT22;54193;53.746;10.058;2023-02-21T04:17:15;7.08;94.13
67279;DHT22;54193;53.746;10.058;2023-02-21T04:20:00;7.10;94.16
67279;DHT22;54193;53.746;10.058;2023-02-21T04:22:46;7.13;94.24
67279;DHT22;54193;53.746;10.058;2023-02-21T04:25:31;7.11;94.26
67279;DHT22;54193;53.746;10.058;2023-02-21T04:28:17;7.13;94.21
67279;DHT22;54193;53.746;10.058;2023-02-21T04:31:03;7.11;94.27
67279;DHT22;54193;53.746;10.058;2023-02-21T04:33:49;7.14;94.39
67279;DHT22;54193;53.746;10.058;2023-02-21T04:36:34;7.13;94.49
67279;DHT22;54193;53.746;10.058;2023-02-21T04:39:22;7.11;94.49
67279;DHT22;54193;53.746;10.058;2023-02-21T04:42:08;7.08;94.50
67279;DHT22;54193;53.746;10.058;2023-02-21T04:44:54;7.08;94.42
67279;DHT22;54193;53.746;10.058;2023-02-21T04:47:39;7.10;94.38
67279;DHT22;54193;53.746;10.058;2023-02-21T04:50:25;7.04;94.34
67279;DHT22;54193;53.746;10.058;2023-02-21T04:53:13;7.04;94.35
67279;DHT22;54193;53.746;10.058;2023-02-21T04:55:58;7.06;94.26
67279;DHT22;54193;53.746;10.058;2023-02-21T04:58:44;7.01;94.21
67279;DHT22;54193;53.746;10.058;2023-02-21T05:01:30;7.00;94.26
67279;DHT22;54193;53.746;10.058;2023-02-21T05:04:16;6.97;94.14
67279;DHT22;54193;53.746;10.058;2023-02-21T05:07:03;6.96;94.23
67279;DHT22;54193;53.746;10.058;2023-02-21T05:09:50;6.95;94.03
67279;DHT22;54193;53.746;10.058;2023-02-21T05:12:37;6.95;94.00
67279;DHT22;54193;53.746;10.058;2023-02-21T05:15:24;6.93;93.83
67279;DHT22;54193;53.746;10.058;2023-02-21T05:18:09;6.90;93.96
67279;DHT22;54193;53.746;10.058;2023-02-21T05:20:55;6.90;93.84
67279;DHT22;54193;53.746;10.058;2023-02-21T05:23:41;6.85;93.75
67279;DHT22;54193;53.746;10.058;2023-02-21T05:26:32;6.83;93.72
67279;DHT22;54193;53.746;10.058;2023-02-21T05:29:18;6.82;93.75
67279;DHT22;54193;53.746;10.058;2023-02-21T05:32:04;6.82;93.62
67279;DHT22;54193;53.746;10.058;2023-02-21T05:34:49;6.80;93.51
67279;DHT22;54193;53.746;10.058;2023-02-21T05:37:35;6.80;93.48
67279;DHT22;54193;53.746;10.058;2023-02-21T05:40:21;6.75;93.45
67279;DHT22;54193;53.746;10.058;2023-02-21T05:43:06;6.79;93.53
67279;DHT22;54193;53.746;10.058;2023-02-21T05:45:52;6.79;93.45
67279;DHT22;54193;53.746;10.058;2023-02-21T05:48:38;6.80;93.20
67279;DHT22;54193;53.746;10.058;2023-02-21T05:51:24;6.80;93.31
67279;DHT22;54193;53.746;10.058;2023-02-21T05:54:14;6.79;93.23
67279;DHT22;54193;53.746;10.058;2023-02-21T05:57:00;6.78;93.26
67279;DHT22;54193;53.746;10.058;2023-02-21T05:59:46;6.72;93.32
67279;DHT22;54193;53.746;10.058;2023-02-21T06:02:32;6.71;93.06
67279;DHT22;54193;53.746;10.058;2023-02-21T06:05:19;6.69;93.31
67279;DHT22;54193;53.746;10.058;2023-02-21T06:08:04;6.67;93.35
67279;DHT22;54193;53.746;10.058;2023-02-21T06:10:50;6.68;93.35
67279;DHT22;54193;53.746;10.058;2023-02-21T06:13:36;6.62;93.22
67279;DHT22;54193;53.746;10.058;2023-02-21T06:16:22;6.64;93.55
67279;DHT22;54193;53.746;10.058;2023-02-21T06:19:09;6.62;93.27
67279;DHT22;54193;53.746;10.058;2023-02-21T06:21:55;6.59;92.98
67279;DHT22;54193;53.746;10.058;2023-02-21T06:24:41;6.59;93.03
67279;DHT22;54193;53.746;10.058;2023-02-21T06:27:26;6.59;93.09
67279;DHT22;54193;53.746;10.058;2023-02-21T06:30:12;6.58;92.99
67279;DHT22;54193;53.746;10.058;2023-02-21T06:32:58;6.53;93.11
67279;DHT22;54193;53.746;10.058;2023-02-21T06:35:43;6.56;93.04
67279;DHT22;54193;53.746;10.058;2023-02-21T06:38:31;6.56;93.08
67279;DHT22;54193;53.746;10.058;2023-02-21T06:41:18;6.55;93.19
67279;DHT22;54193;53.746;10.058;2023-02-21T06:44:04;6.52;93.04
67279;DHT22;54193;53.746;10.058;2023-02-21T06:46:50;6.52;93.19
67279;DHT22;54193;53.746;10.058;2023-02-21T06:49:35;6.51;93.27
67279;DHT22;54193;53.746;10.058;2023-02-21T06:52:21;6.53;93.27
67279;DHT22;54193;53.746;10.058;2023-02-21T06:55:06;6.51;93.26
67279;DHT22;54193;53.746;10.058;2023-02-21T06:57:52;6.52;93.37
67279;DHT22;54193;53.746;10.058;2023-02-21T07:00:38;6.52;93.29
67279;DHT22;54193;53.746;10.058;2023-02-21T07:03:25;6.52;93.22
67279;DHT22;54193;53.746;10.058;2023-02-21T07:06:11;6.58;93.28
67279;DHT22;54193;53.746;10.058;2023-02-21T07:08:56;6.61;92.90
67279;DHT22;54193;53.746;10.058;2023-02-21T07:11:42;6.68;92.90
67279;DHT22;54193;53.746;10.058;2023-02-21T07:14:29;6.64;92.73
67279;DHT22;54193;53.746;10.058;2023-02-21T07:17:14;6.61;92.51
67279;DHT22;54193;53.746;10.058;2023-02-21T07:20:00;6.62;92.67
67279;DHT22;54193;53.746;10.058;2023-02-21T07:22:46;6.58;92.58
67279;DHT22;54193;53.746;10.058;2023-02-21T07:25:33;6.64;92.75
67279;DHT22;54193;53.746;10.058;2023-02-21T07:28:18;6.59;92.41
67279;DHT22;54193;53.746;10.058;2023-02-21T07:31:04;6.64;92.48
67279;DHT22;54193;53.746;10.058;2023-02-21T07:33:50;6.73;92.51
67279;DHT22;54193;53.746;10.058;2023-02-21T07:36:36;6.72;92.64
67279;DHT22;54193;53.746;10.058;2023-02-21T07:39:22;6.68;92.51
67279;DHT22;54193;53.746;10.058;2023-02-21T07:42:08;6.71;92.37
67279;DHT22;54193;53.746;10.058;2023-02-21T07:44:57;6.78;92.27
67279;DHT22;54193;53.746;10.058;2023-02-21T07:47:44;6.86;91.87
67279;DHT22;54193;53.746;10.058;2023-02-21T07:50:30;6.99;92.42
67279;DHT22;54193;53.746;10.058;2023-02-21T07:53:16;7.00;91.59
67279;DHT22;54193;53.746;10.058;2023-02-21T07:56:03;7.14;91.69
67279;DHT22;54193;53.746;10.058;2023-02-21T07:58:48;7.27;91.25
67279;DHT22;54193;53.746;10.058;2023-02-21T08:01:34;7.38;90.96
67279;DHT22;54193;53.746;10.058;2023-02-21T08:04:20;7.59;90.82
67279;DHT22;54193;53.746;10.058;2023-02-21T08:07:07;7.71;90.49
67279;DHT22;54193;53.746;10.058;2023-02-21T08:09:52;7.82;90.22
67279;DHT22;54193;53.746;10.058;2023-02-21T08:12:38;8.00;89.60
67279;DHT22;54193;53.746;10.058;2023-02-21T08:15:23;8.17;89.53
67279;DHT22;54193;53.746;10.058;2023-02-21T08:18:16;8.34;89.42
67279;DHT22;54193;53.746;10.058;2023-02-21T08:21:07;8.34;88.81
67279;DHT22;54193;53.746;10.058;2023-02-21T08:23:53;8.16;88.66
67279;DHT22;54193;53.746;10.058;2023-02-21T08:26:40;8.11;88.93
67279;DHT22;54193;53.746;10.058;2023-02-21T08:29:26;8.11;88.85
67279;DHT22;54193;53.746;10.058;2023-02-21T08:32:13;8.27;88.94
67279;DHT22;54193;53.746;10.058;2023-02-21T08:34:58;8.52;88.38
67279;DHT22;54193;53.746;10.058;2023-02-21T08:37:45;8.97;87.35
67279;DHT22;54193;53.746;10.058;2023-02-21T08:40:31;9.22;87.57
67279;DHT22;54193;53.746;10.058;2023-02-21T08:43:17;9.41;85.75
67279;DHT22;54193;53.746;10.058;2023-02-21T08:46:03;9.23;85.83
67279;DHT22;54193;53.746;10.058;2023-02-21T08:48:49;9.37;85.89
67279;DHT22;54193;53.746;10.058;2023-02-21T08:51:35;9.14;85.96
67279;DHT22;54193;53.746;10.058;2023-02-21T08:54:20;8.87;85.45
67279;DHT22;54193;53.746;10.058;2023-02-21T08:57:06;9.00;86.52
67279;DHT22;54193;53.746;10.058;2023-02-21T08:59:52;8.90;86.00
67279;DHT22;54193;53.746;10.058;2023-02-21T09:02:38;9.14;85.43
67279;DHT22;54193;53.746;10.058;2023-02-21T09:05:28;9.50;84.05
67279;DHT22;54193;53.746;10.058;2023-02-21T09:08:14;9.50;83.11
67279;DHT22;54193;53.746;10.058;2023-02-21T09:11:00;9.19;83.56
67279;DHT22;54193;53.746;10.058;2023-02-21T09:13:45;9.12;84.50
67279;DHT22;54193;53.746;10.058;2023-02-21T09:16:31;9.33;85.08
67279;DHT22;54193;53.746;10.058;2023-02-21T09:19:17;9.33;83.65
67279;DHT22;54193;53.746;10.058;2023-02-21T09:22:03;9.44;83.93
67279;DHT22;54193;53.746;10.058;2023-02-21T09:24:50;9.41;83.39
67279;DHT22;54193;53.746;10.058;2023-02-21T09:27:36;9.41;82.83
67279;DHT22;54193;53.746;10.058;2023-02-21T09:30:24;9.30;82.03
67279;DHT22;54193;53.746;10.058;2023-02-21T09:33:11;9.30;82.99
67279;DHT22;54193;53.746;10.058;2023-02-21T09:35:57;9.24;83.16
67279;DHT22;54193;53.746;10.058;2023-02-21T09:38:44;9.54;83.11
67279;DHT22;54193;53.746;10.058;2023-02-21T09:41:32;9.67;83.91
67279;DHT22;54193;53.746;10.058;2023-02-21T09:44:22;9.63;82.60
67279;DHT22;54193;53.746;10.058;2023-02-21T09:47:25;9.92;81.94
67279;DHT22;54193;53.746;10.058;2023-02-21T09:50:14;10.23;81.28
67279;DHT22;54193;53.746;10.058;2023-02-21T09:53:00;10.50;81.49
67279;DHT22;54193;53.746;10.058;2023-02-21T09:55:49;10.54;79.76
67279;DHT22;54193;53.746;10.058;2023-02-21T09:58:40;10.43;78.94
67279;DHT22;54193;53.746;10.058;2023-02-21T10:01:52;10.26;80.45
67279;DHT22;54193;53.746;10.058;2023-02-21T10:05:11;9.69;80.54
67279;DHT22;54193;53.746;10.058;2023-02-21T10:10:55;9.78;81.70
67279;DHT22;54193;53.746;10.058;2023-02-21T10:13:51;9.93;80.07
67279;DHT22;54193;53.746;10.058;2023-02-21T10:16:58;10.06;78.89
67279;DHT22;54193;53.746;10.058;2023-02-21T10:19:49;10.14;78.78
67279;DHT22;54193;53.746;10.058;2023-02-21T10:22:38;10.16;78.45
67279;DHT22;54193;53.746;10.058;2023-02-21T10:25:27;10.27;77.99
67279;DHT22;54193;53.746;10.058;2023-02-21T10:28:23;10.18;79.15
67279;DHT22;54193;53.746;10.058;2023-02-21T10:31:23;10.40;77.31
67279;DHT22;54193;53.746;10.058;2023-02-21T10:34:20;10.53;77.17
67279;DHT22;54193;53.746;10.058;2023-02-21T10:37:38;10.88;78.48
67279;DHT22;54193;53.746;10.058;2023-02-21T10:40:37;10.79;79.24
67279;DHT22;54193;53.746;10.058;2023-02-21T10:43:42;11.03;78.25
67279;DHT22;54193;53.746;10.058;2023-02-21T10:46:59;10.99;78.02
67279;DHT22;54193;53.746;10.058;2023-02-21T10:50:00;10.76;77.61
67279;DHT22;54193;53.746;10.058;2023-02-21T10:52:48;10.72;78.90
67279;DHT22;54193;53.746;10.058;2023-02-21T10:55:34;10.88;77.65
67279;DHT22;54193;53.746;10.058;2023-02-21T10:58:23;10.67;78.41
67279;DHT22;54193;53.746;10.058;2023-02-21T11:01:16;10.55;78.03
67279;DHT22;54193;53.746;10.058;2023-02-21T11:04:05;10.36;78.64
67279;DHT22;54193;53.746;10.058;2023-02-21T11:07:07;10.44;79.91
67279;DHT22;54193;53.746;10.058;2023-02-21T11:09:53;10.30;79.34
67279;DHT22;54193;53.746;10.058;2023-02-21T11:12:40;10.18;78.97
67279;DHT22;54193;53.746;10.058;2023-02-21T11:15:25;10.23;79.15
67279;DHT22;54193;53.746;10.058;2023-02-21T11:18:22;10.14;79.52
67279;DHT22;54193;53.746;10.058;2023-02-21T11:21:11;10.21;79.96
67279;DHT22;54193;53.746;10.058;2023-02-21T11:24:04;10.34;80.80
67279;DHT22;54193;53.746;10.058;2023-02-21T11:26:52;10.06;79.93
67279;DHT22;54193;53.746;10.058;2023-02-21T11:29:41;10.18;80.94
67279;DHT22;54193;53.746;10.058;2023-02-21T11:32:32;10.32;80.37
67279;DHT22;54193;53.746;10.058;2023-02-21T11:35:21;10.44;80.58
67279;DHT22;54193;53.746;10.058;2023-02-21T11:38:38;10.64;79.42
67279;DHT22;54193;53.746;10.058;2023-02-21T11:41:29;10.81;80.18
67279;DHT22;54193;53.746;10.058;2023-02-21T11:47:26;10.40;81.67
67279;DHT22;54193;53.746;10.058;2023-02-21T11:50:32;10.54;81.43
67279;DHT22;54193;53.746;10.058;2023-02-21T11:56:23;10.83;81.17
67279;DHT22;54193;53.746;10.058;2023-02-21T12:05:49;11.15;79.36
67279;DHT22;54193;53.746;10.058;2023-02-21T12:12:05;11.23;79.03
67279;DHT22;54193;53.746;10.058;2023-02-21T12:21:07;11.09;80.25
67279;DHT22;54193;53.746;10.058;2023-02-21T12:24:29;10.96;80.36
67279;DHT22;54193;53.746;10.058;2023-02-21T12:27:38;10.99;80.41
67279;DHT22;54193;53.746;10.058;2023-02-21T12:40:03;10.55;81.42
67279;DHT22;54193;53.746;10.058;2023-02-21T12:48:50;10.37;81.99
67279;DHT22;54193;53.746;10.058;2023-02-21T12:51:57;10.24;83.45
67279;DHT22;54193;53.746;10.058;2023-02-21T12:55:00;10.10;83.09
67279;DHT22;54193;53.746;10.058;2023-02-21T12:58:00;10.17;83.54
67279;DHT22;54193;53.746;10.058;2023-02-21T13:00:56;10.02;83.57
67279;DHT22;54193;53.746;10.058;2023-02-21T13:04:05;10.18;83.44
67279;DHT22;54193;53.746;10.058;2023-02-21T13:07:16;10.17;83.91
67279;DHT22;54193;53.746;10.058;2023-02-21T13:10:30;10.33;84.06
67279;DHT22;54193;53.746;10.058;2023-02-21T13:13:24;10.18;83.66
67279;DHT22;54193;53.746;10.058;2023-02-21T13:16:12;10.06;83.67
67279;DHT22;54193;53.746;10.058;2023-02-21T13:19:01;10.13;83.62
67279;DHT22;54193;53.746;10.058;2023-02-21T13:22:05;9.85;82.16
67279;DHT22;54193;53.746;10.058;2023-02-21T13:25:45;9.69;80.33
67279;DHT22;54193;53.746;10.058;2023-02-21T13:28:35;9.72;80.75
67279;DHT22;54193;53.746;10.058;2023-02-21T13:31:25;9.71;80.29
67279;DHT22;54193;53.746;10.058;2023-02-21T13:34:16;9.77;80.87
67279;DHT22;54193;53.746;10.058;2023-02-21T13:37:15;9.77;80.45
67279;DHT22;54193;53.746;10.058;2023-02-21T13:40:15;9.79;80.13
67279;DHT22;54193;53.746;10.058;2023-02-21T13:43:09;9.78;79.16
67279;DHT22;54193;53.746;10.058;2023-02-21T13:52:35;9.92;79.83
67279;DHT22;54193;53.746;10.058;2023-02-21T13:55:23;9.89;80.72
67279;DHT22;54193;53.746;10.058;2023-02-21T14:00:56;9.85;81.21
67279;DHT22;54193;53.746;10.058;2023-02-21T14:03:57;9.89;81.48
67279;DHT22;54193;53.746;10.058;2023-02-21T14:06:54;9.90;81.85
67279;DHT22;54193;53.746;10.058;2023-02-21T14:09:41;9.81;81.54
67279;DHT22;54193;53.746;10.058;2023-02-21T14:12:27;9.77;82.32
67279;DHT22;54193;53.746;10.058;2023-02-21T14:15:13;9.54;82.45
67279;DHT22;54193;53.746;10.058;2023-02-21T14:17:59;9.58;82.87
67279;DHT22;54193;53.746;10.058;2023-02-21T14:20:51;9.69;83.13
67279;DHT22;54193;53.746;10.058;2023-02-21T14:23:44;9.78;83.11
67279;DHT22;54193;53.746;10.058;2023-02-21T14:29:37;9.90;83.53
67279;DHT22;54193;53.746;10.058;2023-02-21T14:32:30;9.83;82.67
67279;DHT22;54193;53.746;10.058;2023-02-21T14:35:35;10.00;83.59
67279;DHT22;54193;53.746;10.058;2023-02-21T14:38:24;10.03;83.21
67279;DHT22;54193;53.746;10.058;2023-02-21T14:44:18;9.98;83.27
67279;DHT22;54193;53.746;10.058;2023-02-21T14:53:20;9.93;82.93
67279;DHT22;54193;53.746;10.058;2023-02-21T14:59:41;9.88;83.33
67279;DHT22;54193;53.746;10.058;2023-02-21T15:05:35;9.79;83.61
67279;DHT22;54193;53.746;10.058;2023-02-21T15:08:23;9.79;83.91
67279;DHT22;54193;53.746;10.058;2023-02-21T15:11:25;9.72;84.13
67279;DHT22;54193;53.746;10.058;2023-02-21T15:14:24;9.72;84.64
67279;DHT22;54193;53.746;10.058;2023-02-21T15:17:15;9.63;84.65
67279;DHT22;54193;53.746;10.058;2023-02-21T15:20:13;9.65;85.13
67279;DHT22;54193;53.746;10.058;2023-02-21T15:25:57;9.58;85.14
67279;DHT22;54193;53.746;10.058;2023-02-21T15:28:43;9.61;85.46
67279;DHT22;54193;53.746;10.058;2023-02-21T15:31:56;9.50;85.73
67279;DHT22;54193;53.746;10.058;2023-02-21T15:34:44;9.47;85.57
67279;DHT22;54193;53.746;10.058;2023-02-21T15:37:32;9.28;85.75
67279;DHT22;54193;53.746;10.058;2023-02-21T15:40:21;9.30;86.20
67279;DHT22;54193;53.746;10.058;2023-02-21T15:43:20;9.13;86.48
67279;DHT22;54193;53.746;10.058;2023-02-21T15:46:08;9.12;86.65
67279;DHT22;54193;53.746;10.058;2023-02-21T15:48:59;9.04;86.82
67279;DHT22;54193;53.746;10.058;2023-02-21T15:51:46;8.99;86.88
67279;DHT22;54193;53.746;10.058;2023-02-21T15:54:33;8.82;87.40
67279;DHT22;54193;53.746;10.058;2023-02-21T15:57:23;8.90;87.49
67279;DHT22;54193;53.746;10.058;2023-02-21T16:03:26;8.86;87.64
67279;DHT22;54193;53.746;10.058;2023-02-21T16:06:28;8.80;87.40
67279;DHT22;54193;53.746;10.058;2023-02-21T16:12:21;8.73;87.68
67279;DHT22;54193;53.746;10.058;2023-02-21T16:18:09;8.64;88.00
67279;DHT22;54193;53.746;10.058;2023-02-21T16:21:01;8.72;88.05
67279;DHT22;54193;53.746;10.058;2023-02-21T16:23:48;8.65;87.92
67279;DHT22;54193;53.746;10.058;2023-02-21T16:26:34;8.62;87.82
67279;DHT22;54193;53.746;10.058;2023-02-21T16:29:19;8.58;87.87
67279;DHT22;54193;53.746;10.058;2023-02-21T16:32:06;8.49;88.00
67279;DHT22;54193;53.746;10.058;2023-02-21T16:34:59;8.55;88.31
67279;DHT22;54193;53.746;10.058;2023-02-21T16:37:49;8.52;88.33
67279;DHT22;54193;53.746;10.058;2023-02-21T16:40:36;8.47;88.20
67279;DHT22;54193;53.746;10.058;2023-02-21T16:43:26;8.37;88.46
67279;DHT22;54193;53.746;10.058;2023-02-21T16:46:12;8.34;88.57
67279;DHT22;54193;53.746;10.058;2023-02-21T16:48:58;8.37;88.47
67279;DHT22;54193;53.746;10.058;2023-02-21T16:51:44;8.42;88.67
67279;DHT22;54193;53.746;10.058;2023-02-21T16:54:30;8.41;88.60
67279;DHT22;54193;53.746;10.058;2023-02-21T16:57:15;8.38;88.73
67279;DHT22;54193;53.746;10.058;2023-02-21T17:00:01;8.36;88.71
67279;DHT22;54193;53.746;10.058;2023-02-21T17:02:51;8.30;88.94
67279;DHT22;54193;53.746;10.058;2023-02-21T17:05:37;8.27;89.03
67279;DHT22;54193;53.746;10.058;2023-02-21T17:08:23;8.30;89.13
67279;DHT22;54193;53.746;10.058;2023-02-21T17:11:10;8.31;89.15
67279;DHT22;54193;53.746;10.058;2023-02-21T17:13:55;8.24;89.28
67279;DHT22;54193;53.746;10.058;2023-02-21T17:16:42;8.30;89.25
67279;DHT22;54193;53.746;10.058;2023-02-21T17:19:29;8.16;89.04
67279;DHT22;54193;53.746;10.058;2023-02-21T17:22:15;8.10;89.42
67279;DHT22;54193;53.746;10.058;2023-02-21T17:25:02;8.07;89.60
67279;DHT22;54193;53.746;10.058;2023-02-21T17:27:48;8.07;89.71
67279;DHT22;54193;53.746;10.058;2023-02-21T17:30:34;8.06;89.71
67279;DHT22;54193;53.746;10.058;2023-02-21T17:33:21;8.02;89.72
67279;DHT22;54193;53.746;10.058;2023-02-21T17:36:07;8.02;89.95
67279;DHT22;54193;53.746;10.058;2023-02-21T17:38:53;8.06;89.93
67279;DHT22;54193;53.746;10.058;2023-02-21T17:41:45;8.07;89.98
67279;DHT22;54193;53.746;10.058;2023-02-21T17:44:31;8.02;90.07
67279;DHT22;54193;53.746;10.058;2023-02-21T17:47:19;8.03;90.20
67279;DHT22;54193;53.746;10.058;2023-02-21T17:50:06;8.03;90.31
67279;DHT22;54193;53.746;10.058;2023-02-21T17:52:52;8.02;90.31
67279;DHT22;54193;53.746;10.058;2023-02-21T17:55:38;7.99;90.46
67279;DHT22;54193;53.746;10.058;2023-02-21T17:58:27;8.00;90.41
67279;DHT22;54193;53.746;10.058;2023-02-21T18:01:16;7.97;90.39
67279;DHT22;54193;53.746;10.058;2023-02-21T18:04:03;7.99;90.48
67279;DHT22;54193;53.746;10.058;2023-02-21T18:06:49;7.94;90.51
67279;DHT22;54193;53.746;10.058;2023-02-21T18:09:35;7.82;90.65
67279;DHT22;54193;53.746;10.058;2023-02-21T18:12:21;7.75;90.84
67279;DHT22;54193;53.746;10.058;2023-02-21T18:15:07;7.76;90.92
67279;DHT22;54193;53.746;10.058;2023-02-21T18:17:55;7.79;90.88
67279;DHT22;54193;53.746;10.058;2023-02-21T18:20:41;7.83;90.93
67279;DHT22;54193;53.746;10.058;2023-02-21T18:23:31;7.85;90.82
67279;DHT22;54193;53.746;10.058;2023-02-21T18:26:18;7.89;90.86
67279;DHT22;54193;53.746;10.058;2023-02-21T18:29:04;7.87;90.83
67279;DHT22;54193;53.746;10.058;2023-02-21T18:31:53;7.89;90.92
67279;DHT22;54193;53.746;10.058;2023-02-21T18:34:39;7.89;90.93
67279;DHT22;54193;53.746;10.058;2023-02-21T18:37:25;7.87;90.98
67279;DHT22;54193;53.746;10.058;2023-02-21T18:40:12;7.89;91.02
67279;DHT22;54193;53.746;10.058;2023-02-21T18:43:00;7.87;91.07
67279;DHT22;54193;53.746;10.058;2023-02-21T18:45:47;7.83;91.18
67279;DHT22;54193;53.746;10.058;2023-02-21T18:48:33;7.83;91.33
67279;DHT22;54193;53.746;10.058;2023-02-21T18:51:19;7.82;91.37
67279;DHT22;54193;53.746;10.058;2023-02-21T18:54:04;7.78;91.51
67279;DHT22;54193;53.746;10.058;2023-02-21T18:56:50;7.76;91.56
67279;DHT22;54193;53.746;10.058;2023-02-21T18:59:36;7.79;91.61
67279;DHT22;54193;53.746;10.058;2023-02-21T19:02:22;7.79;91.63
67279;DHT22;54193;53.746;10.058;2023-02-21T19:05:14;7.81;91.57
67279;DHT22;54193;53.746;10.058;2023-02-21T19:08:00;7.79;91.56
67279;DHT22;54193;53.746;10.058;2023-02-21T19:10:47;7.71;91.69
67279;DHT22;54193;53.746;10.058;2023-02-21T19:13:33;7.76;91.73
67279;DHT22;54193;53.746;10.058;2023-02-21T19:16:19;7.79;91.69
67279;DHT22;54193;53.746;10.058;2023-02-21T19:19:05;7.81;91.72
67279;DHT22;54193;53.746;10.058;2023-02-21T19:21:50;7.82;91.64
67279;DHT22;54193;53.746;10.058;2023-02-21T19:24:36;7.86;91.65
67279;DHT22;54193;53.746;10.058;2023-02-21T19:27:22;7.89;91.66
67279;DHT22;54193;53.746;10.058;2023-02-21T19:30:08;7.86;91.61
67279;DHT22;54193;53.746;10.058;2023-02-21T19:32:56;7.87;91.63
67279;DHT22;54193;53.746;10.058;2023-02-21T19:35:43;7.85;91.60
67279;DHT22;54193;53.746;10.058;2023-02-21T19:38:30;7.87;91.66
67279;DHT22;54193;53.746;10.058;2023-02-21T19:41:17;7.85;91.63
67279;DHT22;54193;53.746;10.058;2023-02-21T19:44:03;7.83;91.65